createdAt,value
2023-10-10T00:02:46.756Z,100969
2023-10-10T00:08:42.723Z,100978
2023-10-10T00:14:34.747Z,100983
2023-10-10T00:20:27.153Z,100981
2023-10-10T00:26:20.536Z,100989
2023-10-10T00:32:11.870Z,100985
2023-10-10T00:38:04.573Z,100971
2023-10-10T00:43:57.925Z,100974
2023-10-10T00:49:48.818Z,100963
2023-10-10T00:55:38.996Z,100973
2023-10-10T01:01:31.621Z,100954
2023-10-10T01:07:23.707Z,100947
2023-10-10T01:13:17.835Z,100953
2023-10-10T01:19:11.526Z,100946
2023-10-10T01:25:04.637Z,100938
2023-10-10T01:30:56.985Z,100933
2023-10-10T01:36:49.425Z,100924
2023-10-10T01:42:41.658Z,100920
2023-10-10T01:48:35.441Z,100927
2023-10-10T01:54:28.758Z,100914
2023-10-10T02:00:21.124Z,100901
2023-10-10T02:06:11.089Z,100899
2023-10-10T02:12:03.580Z,100902
2023-10-10T02:17:58.085Z,100900
2023-10-10T02:23:50.635Z,100907
2023-10-10T02:29:42.760Z,100906
2023-10-10T02:35:35.359Z,100899
2023-10-10T02:41:28.648Z,100886
2023-10-10T02:47:21.418Z,100891
2023-10-10T02:53:15.266Z,100895
2023-10-10T02:59:07.013Z,100888
2023-10-10T03:05:00.420Z,100895
2023-10-10T03:10:53.040Z,100901
2023-10-10T03:16:47.133Z,100896
2023-10-10T03:22:39.511Z,100898
2023-10-10T03:28:33.285Z,100891
2023-10-10T03:34:26.356Z,100896
2023-10-10T03:40:20.834Z,100893
2023-10-10T03:46:14.500Z,100891
2023-10-10T03:52:06.619Z,100890
2023-10-10T03:57:59.352Z,100881
2023-10-10T04:03:53.646Z,100885
2023-10-10T04:09:45.524Z,100888
2023-10-10T04:15:38.043Z,100886
2023-10-10T04:21:31.236Z,100895
2023-10-10T04:27:23.639Z,100888
2023-10-10T04:33:16.340Z,100891
2023-10-10T04:39:10.910Z,100896
2023-10-10T04:45:03.982Z,100889
2023-10-10T04:50:58.565Z,100891
2023-10-10T04:56:52.830Z,100890
2023-10-10T05:02:45.047Z,100893
2023-10-10T05:08:37.765Z,100901
2023-10-10T05:14:31.713Z,100883
2023-10-10T05:20:23.904Z,100886
2023-10-10T05:26:16.571Z,100878
2023-10-10T05:32:10.139Z,100885
2023-10-10T05:38:02.725Z,100881
2023-10-10T05:43:53.313Z,100878
2023-10-10T05:49:45.062Z,100881
2023-10-10T05:55:37.288Z,100877
2023-10-10T06:01:32.070Z,100871
2023-10-10T06:07:23.995Z,100872
2023-10-10T06:13:17.667Z,100873
2023-10-10T06:19:10.253Z,100873
2023-10-10T06:25:05.875Z,100866
2023-10-10T06:30:59.969Z,100867
2023-10-10T06:36:54.135Z,100872
2023-10-10T06:42:48.390Z,100857
2023-10-10T06:48:40.489Z,100865
2023-10-10T06:54:33.678Z,100858
2023-10-10T07:00:26.685Z,100861
2023-10-10T07:06:20.533Z,100854
2023-10-10T07:12:12.189Z,100844
2023-10-10T07:18:04.799Z,100847
2023-10-10T07:23:57.584Z,100849
2023-10-10T07:29:52.133Z,100855
2023-10-10T07:35:45.002Z,100862
2023-10-10T07:41:37.839Z,100872
2023-10-10T07:47:32.966Z,100872
2023-10-10T07:53:27.022Z,100877
2023-10-10T07:59:20.130Z,100890
2023-10-10T08:05:16.849Z,100880
2023-10-10T08:11:07.320Z,100871
2023-10-10T08:17:02.162Z,100863
2023-10-10T08:22:54.817Z,100857
2023-10-10T08:28:49.682Z,100859
2023-10-10T08:34:42.097Z,100859
2023-10-10T08:40:37.373Z,100849
2023-10-10T08:46:32.544Z,100846
2023-10-10T08:52:25.445Z,100845
2023-10-10T08:58:17.862Z,100842
2023-10-10T09:04:12.333Z,100833
2023-10-10T09:10:06.646Z,100839
2023-10-10T09:15:58.410Z,100836
2023-10-10T09:21:53.200Z,100839
2023-10-10T09:27:46.041Z,100814
2023-10-10T09:33:38.997Z,100807
2023-10-10T09:39:32.286Z,100809
2023-10-10T09:45:24.118Z,100809
2023-10-10T09:51:16.228Z,100810
2023-10-10T09:57:08.105Z,100805
2023-10-10T10:03:00.129Z,100810
2023-10-10T10:08:52.047Z,100800
2023-10-10T10:14:46.020Z,100808
2023-10-10T10:20:39.831Z,100805
2023-10-10T10:26:32.193Z,100802
2023-10-10T10:32:25.011Z,100802
2023-10-10T10:38:20.230Z,100800
2023-10-10T10:44:12.100Z,100799
2023-10-10T10:50:05.849Z,100796
2023-10-10T10:55:59.051Z,100797
2023-10-10T11:01:54.163Z,100789
2023-10-10T11:07:49.197Z,100782
2023-10-10T11:13:40.974Z,100779
2023-10-10T11:19:33.527Z,100771
2023-10-10T11:25:27.095Z,100760
2023-10-10T11:31:22.632Z,100752
2023-10-10T11:37:16.980Z,100746
2023-10-10T11:43:11.353Z,100741
2023-10-10T11:49:03.670Z,100738
2023-10-10T11:54:56.230Z,100735
2023-10-10T12:00:53.604Z,100733
2023-10-10T12:06:46.795Z,100718
2023-10-10T12:12:38.940Z,100718
2023-10-10T12:18:32.468Z,100704
2023-10-10T12:24:25.193Z,100703
2023-10-10T12:30:19.831Z,100702
2023-10-10T12:36:12.664Z,100704
2023-10-10T12:42:07.191Z,100687
2023-10-10T12:48:01.379Z,100687
2023-10-10T12:59:50.419Z,100680
2023-10-10T13:05:44.747Z,100680
2023-10-10T13:11:38.268Z,100677
2023-10-10T13:17:33.549Z,100666
2023-10-10T13:23:28.233Z,100657
2023-10-10T13:29:22.411Z,100652
2023-10-10T13:35:15.088Z,100654
2023-10-10T13:41:09.943Z,100643
2023-10-10T13:47:02.474Z,100646
2023-10-10T13:52:55.275Z,100648
2023-10-10T13:58:50.384Z,100626
2023-10-10T14:04:44.657Z,100631
2023-10-10T14:10:35.702Z,100628
2023-10-10T14:16:26.947Z,100628
2023-10-10T14:22:21.281Z,100622
2023-10-10T14:28:18.436Z,100615
2023-10-10T14:34:10.897Z,100612
2023-10-10T14:40:03.107Z,100612
2023-10-10T14:45:55.737Z,100613
2023-10-10T14:51:48.862Z,100600
2023-10-10T14:57:43.146Z,100599
2023-10-10T15:03:35.412Z,100595
2023-10-10T15:09:28.097Z,100594
2023-10-10T15:15:23.042Z,100599
2023-10-10T15:21:17.399Z,100594
2023-10-10T15:27:10.972Z,100595
2023-10-10T15:33:02.340Z,100590
2023-10-10T15:38:54.226Z,100585
2023-10-10T15:44:46.748Z,100594
2023-10-10T15:50:43.157Z,100597
2023-10-10T15:56:34.953Z,100600
2023-10-10T16:02:26.939Z,100600
2023-10-10T16:08:19.625Z,100600
2023-10-10T16:14:14.171Z,100600
2023-10-10T16:20:07.521Z,100602
2023-10-10T16:25:59.949Z,100601
2023-10-10T16:31:54.474Z,100613
2023-10-10T16:37:48.993Z,100613
2023-10-10T16:44:03.277Z,100603
2023-10-10T16:49:56.305Z,100612
2023-10-10T16:55:50.724Z,100610
2023-10-10T17:01:41.807Z,100604
2023-10-10T17:07:34.032Z,100613
2023-10-10T17:13:26.018Z,100616
2023-10-10T17:19:21.306Z,100630
2023-10-10T17:25:13.264Z,100634
2023-10-10T17:31:06.972Z,100631
2023-10-10T17:36:58.414Z,100634
2023-10-10T17:42:53.198Z,100628
2023-10-10T17:48:46.550Z,100629
2023-10-10T17:54:39.122Z,100629
2023-10-10T18:00:36.769Z,100637
2023-10-10T18:06:30.626Z,100634
2023-10-10T18:12:21.772Z,100628
2023-10-10T18:18:14.332Z,100630
2023-10-10T18:24:07.833Z,100627
2023-10-10T18:30:00.544Z,100623
2023-10-10T18:35:53.803Z,100625
2023-10-10T18:41:46.635Z,100610
2023-10-10T18:47:41.246Z,100615
2023-10-10T18:53:32.866Z,100625
2023-10-10T18:59:25.086Z,100619
2023-10-10T19:05:17.288Z,100615
2023-10-10T19:11:09.977Z,100609
2023-10-10T19:17:01.643Z,100613
2023-10-10T19:22:53.574Z,100609
2023-10-10T19:28:46.290Z,100606
2023-10-10T19:34:38.946Z,100588
2023-10-10T19:40:30.634Z,100595
2023-10-10T19:46:24.298Z,100596
2023-10-10T19:52:15.643Z,100592
2023-10-10T19:58:07.878Z,100596
2023-10-10T20:04:02.535Z,100593
2023-10-10T20:09:55.116Z,100584
2023-10-10T20:15:47.639Z,100595
2023-10-10T20:21:39.399Z,100587
2023-10-10T20:27:31.397Z,100588
2023-10-10T20:33:24.092Z,100571
2023-10-10T20:39:18.207Z,100573
2023-10-10T20:45:10.413Z,100564
2023-10-10T20:51:03.814Z,100556
2023-10-10T20:56:56.023Z,100560
2023-10-10T21:02:48.898Z,100561
2023-10-10T21:08:47.784Z,100561
2023-10-10T21:14:39.717Z,100554
2023-10-10T21:20:32.730Z,100554
2023-10-10T21:26:47.633Z,100553
2023-10-10T21:32:42.062Z,100540
2023-10-10T21:38:34.072Z,100537
2023-10-10T21:44:28.905Z,100532
2023-10-10T21:50:24.349Z,100528
2023-10-10T21:56:16.611Z,100527
2023-10-10T22:02:07.091Z,100523
2023-10-10T22:08:01.093Z,100521
2023-10-10T22:13:52.986Z,100516
2023-10-10T22:19:47.137Z,100527
2023-10-10T22:25:40.490Z,100515
2023-10-10T22:31:35.442Z,100522
2023-10-10T22:37:29.763Z,100516
2023-10-10T22:43:22.397Z,100515
2023-10-10T22:49:17.248Z,100503
2023-10-10T22:55:09.336Z,100507
2023-10-10T23:01:02.157Z,100514
2023-10-10T23:06:54.699Z,100512
2023-10-10T23:12:47.344Z,100511
2023-10-10T23:18:39.888Z,100515
2023-10-10T23:24:33.833Z,100511
2023-10-10T23:30:27.681Z,100508
2023-10-10T23:36:19.328Z,100504
2023-10-10T23:42:11.721Z,100495
2023-10-10T23:48:07.493Z,100499
2023-10-10T23:53:59.929Z,100502
2023-10-10T23:59:52.495Z,100496
